Time,TemperatureF,DewpointF,PressureIn,WindDirection,WindDirectionDegrees,WindSpeedMPH,WindSpeedGustMPH,Humidity,HourlyPrecipIn,Conditions,Clouds,dailyrainin,SoftwareType,DateUTC
2013-11-21 00:02:00,32.2,30.1,30.08,SSW,202,7.0,7.0,92,0.00,RA,BKN,0.00,WeatherDisplay:10.37,2013-11-21 06:02:00,
2013-11-21 00:07:00,32.2,30.1,30.08,SSW,208,11.0,11.0,92,0.00,RA,BKN,0.00,WeatherDisplay:10.37,2013-11-21 06:07:00,
2013-11-21 00:12:00,32.2,30.1,30.08,South,177,12.0,12.0,92,0.00,CLR,BKN,0.00,WeatherDisplay:10.37,2013-11-21 06:12:00,
2013-11-21 00:17:00,32.2,30.1,30.08,SSW,206,9.2,9.2,92,0.00,CLR,BKN,0.00,WeatherDisplay:10.37,2013-11-21 06:17:00,
2013-11-21 00:22:00,32.2,30.1,30.08,SSW,209,5.8,5.8,92,0.00,CLR,BKN,0.00,WeatherDisplay:10.37,2013-11-21 06:22:00,
2013-11-21 00:27:00,32.2,30.1,30.08,SSW,200,10.4,10.4,92,0.00,CLR,BKN,0.00,WeatherDisplay:10.37,2013-11-21 06:27:00,
2013-11-21 00:32:00,32.2,30.4,30.08,SSW,199,8.0,8.0,93,0.00,CLR,BKN,0.00,WeatherDisplay:10.37,2013-11-21 06:32:00,
2013-11-21 00:37:00,32.2,30.4,30.08,SSW,208,8.0,8.0,93,0.00,CLR,BKN,0.00,WeatherDisplay:10.37,2013-11-21 06:37:00,
2013-11-21 00:42:00,32.2,30.4,30.08,SSW,208,5.0,5.0,93,0.00,CLR,BKN,0.00,WeatherDisplay:10.37,2013-11-21 06:42:00,
2013-11-21 00:48:00,32.2,30.4,30.09,SSW,203,8.1,8.1,93,0.00,CLR,BKN,0.00,WeatherDisplay:10.37,2013-11-21 06:48:00,
2013-11-21 00:53:00,32.2,30.4,30.09,South,190,5.8,5.8,93,0.00,CLR,BKN,0.00,WeatherDisplay:10.37,2013-11-21 06:53:00,
2013-11-21 00:58:00,32.4,30.6,30.09,SSW,202,7.0,7.0,93,0.00,CLR,BKN,0.00,WeatherDisplay:10.37,2013-11-21 06:58:00,
2013-11-21 01:03:00,32.4,30.6,30.09,SSW,210,6.0,6.0,93,0.00,CLR,BKN,0.00,WeatherDisplay:10.37,2013-11-21 07:03:00,
2013-11-21 01:08:00,32.4,30.6,30.09,SSW,200,8.1,8.1,93,0.00,CLR,BKN,0.00,WeatherDisplay:10.37,2013-11-21 07:08:00,
2013-11-21 01:13:00,32.4,30.6,30.09,SW,227,3.5,3.5,93,0.00,CLR,BKN,0.00,WeatherDisplay:10.37,2013-11-21 07:13:00,
2013-11-21 01:18:00,32.4,30.6,30.09,South,187,8.0,8.0,93,0.00,CLR,BKN,0.00,WeatherDisplay:10.37,2013-11-21 07:18:00,
2013-11-21 01:23:00,32.4,30.6,30.09,SW,221,11.5,11.5,93,0.00,CLR,BKN,0.00,WeatherDisplay:10.37,2013-11-21 07:23:00,
2013-11-21 01:28:00,32.4,30.6,30.09,South,186,10.4,10.4,93,0.00,CLR,BKN,0.00,WeatherDisplay:10.37,2013-11-21 07:28:00,
2013-11-21 01:33:00,32.4,30.6,30.09,SSW,208,3.5,3.5,93,0.00,CLR,BKN,0.00,WeatherDisplay:10.37,2013-11-21 07:33:00,
2013-11-21 01:38:00,32.4,30.6,30.09,SSW,208,5.8,5.8,93,0.00,CLR,BKN,0.00,WeatherDisplay:10.37,2013-11-21 07:38:00,
2013-11-21 01:43:00,32.4,30.6,30.09,South,180,4.0,4.0,93,0.00,CLR,BKN,0.00,WeatherDisplay:10.37,2013-11-21 07:43:00,
2013-11-21 01:48:00,32.4,30.6,30.09,SW,227,11.5,11.5,93,0.00,CLR,BKN,0.00,WeatherDisplay:10.37,2013-11-21 07:48:00,
2013-11-21 01:53:00,32.4,30.6,30.09,SSW,198,9.2,9.2,93,0.00,CLR,BKN,0.00,WeatherDisplay:10.37,2013-11-21 07:53:00,
2013-11-21 01:58:00,32.4,30.6,30.10,SSW,207,8.1,8.1,93,0.00,CLR,BKN,0.00,WeatherDisplay:10.37,2013-11-21 07:58:00,
2013-11-21 02:03:00,32.4,30.6,30.10,SSW,198,3.5,3.5,93,0.00,CLR,BKN,0.00,WeatherDisplay:10.37,2013-11-21 08:03:00,
2013-11-21 02:08:00,32.4,30.6,30.10,SSW,199,2.3,2.3,93,0.00,CLR,BKN,0.00,WeatherDisplay:10.37,2013-11-21 08:08:00,
2013-11-21 02:13:00,32.4,30.6,30.10,SSW,201,9.0,9.0,93,0.00,CLR,BKN,0.00,WeatherDisplay:10.37,2013-11-21 08:13:00,
2013-11-21 02:18:00,32.4,30.6,30.10,SSW,200,6.9,6.9,93,0.00,CLR,BKN,0.00,WeatherDisplay:10.37,2013-11-21 08:18:00,
2013-11-21 02:23:00,32.4,30.6,30.10,SSW,200,4.6,4.6,93,0.00,CLR,BKN,0.00,WeatherDisplay:10.37,2013-11-21 08:23:00,
2013-11-21 02:28:00,32.4,30.6,30.10,SSW,200,4.6,4.6,93,0.00,CLR,BKN,0.00,WeatherDisplay:10.37,2013-11-21 08:28:00,
2013-11-21 02:33:00,32.4,30.6,30.11,SSW,200,3.0,3.0,93,0.00,CLR,BKN,0.00,WeatherDisplay:10.37,2013-11-21 08:33:00,
2013-11-21 02:38:00,32.4,30.6,30.11,SSW,200,6.9,6.9,93,0.00,CLR,BKN,0.00,WeatherDisplay:10.37,2013-11-21 08:38:00,
2013-11-21 02:43:00,32.4,30.6,30.11,SSW,200,3.5,3.5,93,0.00,CLR,BKN,0.00,WeatherDisplay:10.37,2013-11-21 08:43:00,
2013-11-21 02:48:00,32.4,30.9,30.10,SSW,200,5.0,5.0,94,0.00,CLR,BKN,0.00,WeatherDisplay:10.37,2013-11-21 08:48:00,
2013-11-21 02:53:00,32.4,30.9,30.10,SSW,200,0.0,0.0,94,0.00,CLR,BKN,0.00,WeatherDisplay:10.37,2013-11-21 08:53:00,
2013-11-21 02:58:00,32.4,30.9,30.10,SSW,200,4.0,4.0,94,0.00,CLR,BKN,0.00,WeatherDisplay:10.37,2013-11-21 08:58:00,
2013-11-21 03:03:00,32.4,30.9,30.10,SSW,200,3.5,3.5,94,0.00,CLR,BKN,0.00,WeatherDisplay:10.37,2013-11-21 09:03:00,
2013-11-21 03:08:00,32.4,30.9,30.10,SSW,200,5.8,5.8,94,0.00,CLR,BKN,0.00,WeatherDisplay:10.37,2013-11-21 09:08:00,
2013-11-21 03:13:00,32.4,30.9,30.10,SSW,200,3.5,3.5,94,0.00,CLR,BKN,0.00,WeatherDisplay:10.37,2013-11-21 09:13:00,
2013-11-21 03:18:00,32.4,30.9,30.11,SSW,200,4.0,4.0,94,0.00,CLR,BKN,0.00,WeatherDisplay:10.37,2013-11-21 09:18:00,
2013-11-21 03:23:00,32.4,30.9,30.11,SSW,200,6.9,6.9,94,0.00,CLR,BKN,0.00,WeatherDisplay:10.37,2013-11-21 09:23:00,
2013-11-21 03:28:00,32.4,30.9,30.11,SSW,200,4.6,4.6,94,0.00,CLR,BKN,0.00,WeatherDisplay:10.37,2013-11-21 09:28:00,
2013-11-21 03:33:00,32.4,30.9,30.11,SSW,200,2.3,2.3,94,0.00,CLR,BKN,0.00,WeatherDisplay:10.37,2013-11-21 09:33:00,
2013-11-21 03:38:00,32.4,30.9,30.11,SSW,200,3.5,3.5,94,0.00,CLR,BKN,0.00,WeatherDisplay:10.37,2013-11-21 09:38:00,
2013-11-21 03:43:00,32.4,30.9,30.11,SSW,200,4.0,4.0,94,0.00,CLR,BKN,0.00,WeatherDisplay:10.37,2013-11-21 09:43:00,
2013-11-21 03:48:00,32.4,30.9,30.11,SSW,200,3.5,3.5,94,0.00,CLR,BKN,0.00,WeatherDisplay:10.37,2013-11-21 09:48:00,
2013-11-21 03:53:00,32.4,30.9,30.11,SSW,200,4.6,4.6,94,0.00,CLR,BKN,0.00,WeatherDisplay:10.37,2013-11-21 09:53:00,
2013-11-21 03:58:00,32.4,30.9,30.11,SSW,200,4.0,4.0,94,0.00,CLR,BKN,0.00,WeatherDisplay:10.37,2013-11-21 09:58:00,
2013-11-21 04:03:00,32.4,30.9,30.11,SSW,205,8.1,8.1,94,0.00,CLR,BKN,0.00,WeatherDisplay:10.37,2013-11-21 10:03:00,
2013-11-21 04:08:00,32.4,30.9,30.11,SSW,212,2.3,2.3,94,0.00,CLR,BKN,0.00,WeatherDisplay:10.37,2013-11-21 10:08:00,
2013-11-21 04:13:00,32.4,30.9,30.11,SSW,212,3.5,3.5,94,0.00,CLR,BKN,0.00,WeatherDisplay:10.37,2013-11-21 10:13:00,
2013-11-21 04:18:00,32.4,30.9,30.11,SW,219,4.0,4.0,94,0.00,CLR,BKN,0.00,WeatherDisplay:10.37,2013-11-21 10:18:00,
2013-11-21 04:23:00,32.4,30.9,30.11,SW,219,3.5,3.5,94,0.00,CLR,BKN,0.00,WeatherDisplay:10.37,2013-11-21 10:23:00,
2013-11-21 04:28:00,32.4,30.9,30.12,SW,219,4.0,4.0,94,0.00,CLR,BKN,0.00,WeatherDisplay:10.37,2013-11-21 10:28:00,
2013-11-21 04:33:00,32.4,30.9,30.12,SW,219,4.0,4.0,94,0.00,CLR,BKN,0.00,WeatherDisplay:10.37,2013-11-21 10:33:00,
2013-11-21 04:38:00,32.4,30.9,30.12,SW,219,3.5,3.5,94,0.00,CLR,BKN,0.00,WeatherDisplay:10.37,2013-11-21 10:38:00,
2013-11-21 04:43:00,32.4,30.9,30.12,SW,219,6.0,6.0,94,0.00,CLR,BKN,0.00,WeatherDisplay:10.37,2013-11-21 10:43:00,
2013-11-21 04:48:00,32.4,30.9,30.12,SW,222,6.9,6.9,94,0.00,CLR,BKN,0.00,WeatherDisplay:10.37,2013-11-21 10:48:00,
2013-11-21 04:53:00,32.4,30.9,30.12,SW,222,3.5,3.5,94,0.00,CLR,BKN,0.00,WeatherDisplay:10.37,2013-11-21 10:53:00,
2013-11-21 04:58:00,32.4,30.9,30.12,SW,221,6.9,6.9,94,0.00,CLR,BKN,0.00,WeatherDisplay:10.37,2013-11-21 10:58:00,
2013-11-21 05:03:00,32.4,30.9,30.13,SW,223,5.8,5.8,94,0.00,CLR,BKN,0.00,WeatherDisplay:10.37,2013-11-21 11:03:00,
2013-11-21 05:08:00,32.4,30.9,30.13,SW,233,6.9,6.9,94,0.00,CLR,BKN,0.00,WeatherDisplay:10.37,2013-11-21 11:08:00,
2013-11-21 05:13:00,32.4,30.9,30.13,SW,233,3.5,3.5,94,0.00,CLR,BKN,0.00,WeatherDisplay:10.37,2013-11-21 11:13:00,
2013-11-21 05:18:00,32.4,30.9,30.13,SW,233,4.0,4.0,94,0.00,CLR,BKN,0.00,WeatherDisplay:10.37,2013-11-21 11:18:00,
2013-11-21 05:23:00,32.4,30.9,30.12,SW,233,3.5,3.5,94,0.00,CLR,BKN,0.00,WeatherDisplay:10.37,2013-11-21 11:23:00,
2013-11-21 05:28:00,32.4,30.9,30.13,SW,233,3.5,3.5,94,0.00,CLR,BKN,0.00,WeatherDisplay:10.37,2013-11-21 11:28:00,
2013-11-21 05:33:00,32.4,31.1,30.13,SW,233,3.5,3.5,95,0.00,CLR,BKN,0.00,WeatherDisplay:10.37,2013-11-21 11:33:00,
2013-11-21 05:38:00,32.4,31.1,30.13,SW,233,3.5,3.5,95,0.00,CLR,BKN,0.00,WeatherDisplay:10.37,2013-11-21 11:38:00,
2013-11-21 05:43:00,32.4,30.9,30.13,SW,233,4.0,4.0,94,0.00,CLR,BKN,0.00,WeatherDisplay:10.37,2013-11-21 11:43:00,
2013-11-21 05:48:00,32.4,31.1,30.13,SW,233,3.5,3.5,95,0.00,CLR,BKN,0.00,WeatherDisplay:10.37,2013-11-21 11:48:00,
2013-11-21 05:53:00,32.4,31.1,30.13,SW,233,3.5,3.5,95,0.00,CLR,BKN,0.00,WeatherDisplay:10.37,2013-11-21 11:53:00,
2013-11-21 05:58:00,32.4,31.1,30.13,SW,233,3.5,3.5,95,0.00,CLR,BKN,0.00,WeatherDisplay:10.37,2013-11-21 11:58:00,
2013-11-21 06:03:00,32.4,31.1,30.13,SW,233,4.6,4.6,95,0.00,CLR,BKN,0.00,WeatherDisplay:10.37,2013-11-21 12:03:00,
2013-11-21 06:08:00,32.5,31.2,30.13,SW,233,2.3,2.3,95,0.00,CLR,BKN,0.00,WeatherDisplay:10.37,2013-11-21 12:08:00,
2013-11-21 06:13:00,32.5,31.2,30.13,SW,233,0.0,0.0,95,0.00,CLR,BKN,0.00,WeatherDisplay:10.37,2013-11-21 12:13:00,
2013-11-21 06:18:00,32.5,31.2,30.13,SW,233,2.3,2.3,95,0.00,CLR,BKN,0.00,WeatherDisplay:10.37,2013-11-21 12:18:00,
2013-11-21 06:23:00,32.5,31.2,30.13,SW,233,2.3,2.3,95,0.00,CLR,BKN,0.00,WeatherDisplay:10.37,2013-11-21 12:23:00,
2013-11-21 06:28:00,32.5,31.2,30.13,SW,233,0.0,0.0,95,0.00,CLR,BKN,0.00,WeatherDisplay:10.37,2013-11-21 12:28:00,
2013-11-21 06:33:00,32.5,31.2,30.13,SW,233,3.5,3.5,95,0.00,CLR,BKN,0.00,WeatherDisplay:10.37,2013-11-21 12:33:00,
2013-11-21 06:38:00,32.5,31.2,30.13,SW,233,2.3,2.3,95,0.00,CLR,BKN,0.00,WeatherDisplay:10.37,2013-11-21 12:38:00,
2013-11-21 06:43:00,32.5,31.2,30.14,SW,233,2.3,2.3,95,0.00,CLR,BKN,0.00,WeatherDisplay:10.37,2013-11-21 12:43:00,
2013-11-21 06:48:00,32.5,31.2,30.14,SW,233,4.0,4.0,95,0.00,CLR,BKN,0.00,WeatherDisplay:10.37,2013-11-21 12:48:00,
2013-11-21 06:53:00,32.5,31.2,30.14,SW,233,4.0,4.0,95,0.00,CLR,BKN,0.00,WeatherDisplay:10.37,2013-11-21 12:53:00,
2013-11-21 06:58:00,32.5,31.2,30.15,SW,233,3.5,3.5,95,0.00,CLR,BKN,0.00,WeatherDisplay:10.37,2013-11-21 12:58:00,
2013-11-21 07:03:00,32.5,31.2,30.15,SW,233,3.5,3.5,95,0.00,CLR,BKN,0.00,WeatherDisplay:10.37,2013-11-21 13:03:00,
2013-11-21 07:08:00,32.5,31.2,30.15,SW,233,3.5,3.5,95,0.00,CLR,BKN,0.00,WeatherDisplay:10.37,2013-11-21 13:08:00,
2013-11-21 07:13:00,32.5,31.2,30.15,SW,233,3.5,3.5,95,0.00,CLR,BKN,0.00,WeatherDisplay:10.37,2013-11-21 13:13:00,
2013-11-21 07:18:00,32.5,31.2,30.15,SW,233,4.0,4.0,95,0.00,CLR,BKN,0.00,WeatherDisplay:10.37,2013-11-21 13:18:00,
2013-11-21 07:23:00,32.5,31.2,30.16,SW,233,5.0,5.0,95,0.00,CLR,BKN,0.00,WeatherDisplay:10.37,2013-11-21 13:23:00,
2013-11-21 07:28:00,32.5,31.2,30.15,SW,233,3.5,3.5,95,0.00,CLR,BKN,0.00,WeatherDisplay:10.37,2013-11-21 13:28:00,
2013-11-21 07:33:00,32.5,31.2,30.15,SW,233,4.0,4.0,95,0.00,CLR,BKN,0.00,WeatherDisplay:10.37,2013-11-21 13:33:00,
2013-11-21 07:38:00,32.5,31.2,30.15,SW,233,3.5,3.5,95,0.00,CLR,BKN,0.00,WeatherDisplay:10.37,2013-11-21 13:38:00,
2013-11-21 07:43:00,32.5,31.2,30.16,SW,233,3.5,3.5,95,0.00,CLR,BKN,0.00,WeatherDisplay:10.37,2013-11-21 13:43:00,
2013-11-21 07:48:00,32.5,31.2,30.16,SW,233,5.0,5.0,95,0.00,CLR,BKN,0.00,WeatherDisplay:10.37,2013-11-21 13:48:00,
2013-11-21 07:53:00,32.5,31.2,30.16,SW,233,5.0,5.0,95,0.00,CLR,BKN,0.00,WeatherDisplay:10.37,2013-11-21 13:53:00,
2013-11-21 07:58:00,32.7,31.4,30.17,SW,233,5.0,5.0,95,0.00,CLR,BKN,0.00,WeatherDisplay:10.37,2013-11-21 13:58:00,
2013-11-21 08:03:00,32.7,31.4,30.17,WSW,237,5.0,5.0,95,0.00,CLR,BKN,0.00,WeatherDisplay:10.37,2013-11-21 14:03:00,
2013-11-21 08:08:00,32.7,31.4,30.17,WSW,237,4.6,4.6,95,0.00,CLR,BKN,0.00,WeatherDisplay:10.37,2013-11-21 14:08:00,
2013-11-21 08:13:00,32.7,31.4,30.17,WSW,237,5.0,5.0,95,0.00,CLR,BKN,0.00,WeatherDisplay:10.37,2013-11-21 14:13:00,
2013-11-21 08:18:00,32.7,31.4,30.17,WSW,244,6.9,6.9,95,0.00,CLR,BKN,0.00,WeatherDisplay:10.37,2013-11-21 14:18:00,
2013-11-21 08:23:00,32.7,31.4,30.17,WSW,244,3.5,3.5,95,0.00,CLR,BKN,0.00,WeatherDisplay:10.37,2013-11-21 14:23:00,
2013-11-21 08:28:00,32.7,31.4,30.17,WSW,244,4.0,4.0,95,0.00,CLR,BKN,0.00,WeatherDisplay:10.37,2013-11-21 14:28:00,
2013-11-21 08:33:00,32.7,31.4,30.17,WSW,244,5.8,5.8,95,0.00,CLR,BKN,0.00,WeatherDisplay:10.37,2013-11-21 14:33:00,
2013-11-21 08:38:00,32.7,31.4,30.17,WSW,250,4.0,4.0,95,0.00,CLR,BKN,0.00,WeatherDisplay:10.37,2013-11-21 14:38:00,
2013-11-21 08:43:00,32.8,31.5,30.17,WSW,250,4.6,4.6,95,0.00,CLR,BKN,0.00,WeatherDisplay:10.37,2013-11-21 14:43:00,
2013-11-21 08:48:00,32.8,31.5,30.17,West,261,4.0,4.3,95,0.00,CLR,BKN,0.00,WeatherDisplay:10.37,2013-11-21 14:48:00,
2013-11-21 08:53:00,32.8,31.5,30.17,West,261,3.5,3.5,95,0.00,CLR,BKN,0.00,WeatherDisplay:10.37,2013-11-21 14:53:00,
2013-11-21 08:58:00,32.8,31.5,30.17,West,261,2.3,2.3,95,0.00,CLR,BKN,0.00,WeatherDisplay:10.37,2013-11-21 14:58:00,
2013-11-21 09:03:00,32.8,31.5,30.17,West,261,4.0,4.0,95,0.00,CLR,BKN,0.00,WeatherDisplay:10.37,2013-11-21 15:03:00,
2013-11-21 09:08:00,32.9,31.6,30.18,West,261,3.5,3.5,95,0.00,CLR,BKN,0.00,WeatherDisplay:10.37,2013-11-21 15:08:00,
2013-11-21 09:13:00,32.9,31.6,30.18,West,261,4.0,4.0,95,0.00,CLR,BKN,0.00,WeatherDisplay:10.37,2013-11-21 15:13:00,
2013-11-21 09:18:00,32.9,31.9,30.18,West,261,5.0,5.0,96,0.00,CLR,BKN,0.00,WeatherDisplay:10.37,2013-11-21 15:18:00,
2013-11-21 09:23:00,32.9,31.6,30.18,West,261,4.6,4.6,95,0.00,CLR,BKN,0.00,WeatherDisplay:10.37,2013-11-21 15:23:00,
2013-11-21 09:28:00,33.1,32.1,30.18,West,261,4.0,4.0,96,0.00,CLR,BKN,0.00,WeatherDisplay:10.37,2013-11-21 15:28:00,
2013-11-21 09:33:00,33.1,32.1,30.18,West,261,3.5,3.5,96,0.00,CLR,BKN,0.00,WeatherDisplay:10.37,2013-11-21 15:33:00,
2013-11-21 09:38:00,33.1,32.1,30.18,West,261,3.5,3.5,96,0.00,CLR,BKN,0.00,WeatherDisplay:10.37,2013-11-21 15:38:00,
2013-11-21 09:43:00,33.2,32.2,30.19,West,261,4.0,4.0,96,0.00,CLR,BKN,0.00,WeatherDisplay:10.37,2013-11-21 15:43:00,
2013-11-21 09:48:00,33.2,32.2,30.19,West,261,5.8,5.8,96,0.00,CLR,BKN,0.00,WeatherDisplay:10.37,2013-11-21 15:48:00,
2013-11-21 09:53:00,33.4,32.4,30.19,West,277,8.1,8.1,96,0.00,CLR,BKN,0.00,WeatherDisplay:10.37,2013-11-21 15:53:00,
2013-11-21 09:58:00,33.4,32.4,30.20,West,277,4.0,4.0,96,0.00,CLR,BKN,0.00,WeatherDisplay:10.37,2013-11-21 15:58:00,
2013-11-21 10:03:00,33.5,32.5,30.20,West,266,7.0,7.0,96,0.00,CLR,BKN,0.00,WeatherDisplay:10.37,2013-11-21 16:03:00,
2013-11-21 10:08:00,33.5,32.5,30.20,West,261,5.0,5.0,96,0.00,CLR,BKN,0.00,WeatherDisplay:10.37,2013-11-21 16:08:00,
2013-11-21 10:13:00,33.5,32.5,30.20,WNW,282,9.2,9.2,96,0.00,CLR,BKN,0.00,WeatherDisplay:10.37,2013-11-21 16:13:00,
2013-11-21 10:18:00,33.7,32.7,30.20,WNW,292,10.4,10.4,96,0.00,CLR,BKN,0.00,WeatherDisplay:10.37,2013-11-21 16:18:00,
2013-11-21 10:23:00,33.7,32.7,30.21,WNW,285,9.2,9.2,96,0.00,CLR,BKN,0.00,WeatherDisplay:10.37,2013-11-21 16:23:00,
2013-11-21 10:28:00,33.8,32.8,30.21,NW,306,8.1,8.1,96,0.00,CLR,BKN,0.00,WeatherDisplay:10.37,2013-11-21 16:28:00,
2013-11-21 10:33:00,33.8,32.8,30.21,WNW,286,14.0,14.0,96,0.00,CLR,BKN,0.00,WeatherDisplay:10.37,2013-11-21 16:33:00,
2013-11-21 10:38:00,33.8,32.8,30.21,WNW,283,11.5,11.5,96,0.00,CLR,BKN,0.00,WeatherDisplay:10.37,2013-11-21 16:38:00,
2013-11-21 10:43:00,33.8,32.8,30.21,WNW,302,10.4,10.4,96,0.00,CLR,BKN,0.00,WeatherDisplay:10.37,2013-11-21 16:43:00,
2013-11-21 10:48:00,33.8,32.8,30.21,West,280,8.1,8.1,96,0.00,CLR,BKN,0.00,WeatherDisplay:10.37,2013-11-21 16:48:00,
2013-11-21 10:53:00,33.8,32.8,30.20,WNW,299,10.4,10.4,96,0.00,CLR,BKN,0.00,WeatherDisplay:10.37,2013-11-21 16:53:00,
2013-11-21 10:58:00,33.8,32.8,30.20,NNW,327,13.0,13.0,96,0.00,CLR,BKN,0.00,WeatherDisplay:10.37,2013-11-21 16:58:00,
2013-11-21 11:03:00,34.0,33.0,30.20,WNW,298,10.4,10.4,96,0.00,CLR,BKN,0.00,WeatherDisplay:10.37,2013-11-21 17:03:00,
2013-11-21 11:08:00,33.8,32.8,30.20,NW,311,5.0,5.0,96,0.00,CLR,BKN,0.00,WeatherDisplay:10.37,2013-11-21 17:08:00,
2013-11-21 11:13:00,33.8,32.8,30.21,NNW,335,9.0,9.0,96,0.00,CLR,BKN,0.00,WeatherDisplay:10.37,2013-11-21 17:13:00,
2013-11-21 11:18:00,33.8,32.8,30.21,North,7,15.0,15.0,96,0.00,CLR,BKN,0.00,WeatherDisplay:10.37,2013-11-21 17:18:00,
2013-11-21 11:23:00,33.8,32.8,30.21,NNW,334,12.7,12.7,96,0.01,RA,BKN,0.01,WeatherDisplay:10.37,2013-11-21 17:23:00,
2013-11-21 11:28:00,33.5,32.5,30.21,NNW,335,13.8,13.8,96,0.01,RA,BKN,0.01,WeatherDisplay:10.37,2013-11-21 17:28:00,
2013-11-21 11:33:00,33.4,32.4,30.21,NW,321,15.0,15.0,96,0.01,CLR,BKN,0.01,WeatherDisplay:10.37,2013-11-21 17:33:00,
2013-11-21 11:38:00,33.2,32.2,30.22,NNW,345,13.8,13.8,96,0.01,CLR,BKN,0.01,WeatherDisplay:10.37,2013-11-21 17:38:00,
2013-11-21 11:43:00,32.9,31.9,30.22,NNW,336,12.7,12.7,96,0.01,CLR,BKN,0.01,WeatherDisplay:10.37,2013-11-21 17:43:00,
2013-11-21 11:48:00,32.8,31.8,30.22,NNW,329,12.7,12.7,96,0.01,CLR,BKN,0.01,WeatherDisplay:10.37,2013-11-21 17:48:00,
2013-11-21 11:53:00,32.7,31.7,30.22,NNW,341,13.0,13.0,96,0.01,CLR,BKN,0.01,WeatherDisplay:10.37,2013-11-21 17:53:00,
2013-11-21 11:58:00,32.4,31.1,30.22,NNW,337,16.0,16.0,95,0.01,CLR,BKN,0.01,WeatherDisplay:10.37,2013-11-21 17:58:00,
2013-11-21 12:03:00,32.2,30.9,30.23,WNW,298,8.0,8.0,95,0.01,CLR,BKN,0.01,WeatherDisplay:10.37,2013-11-21 18:03:00,
2013-11-21 12:08:00,32.1,30.8,30.23,NW,316,16.1,16.1,95,0.01,CLR,BKN,0.01,WeatherDisplay:10.37,2013-11-21 18:08:00,
2013-11-21 12:13:00,31.9,30.6,30.23,NNW,333,12.0,12.0,95,0.01,CLR,BKN,0.01,WeatherDisplay:10.37,2013-11-21 18:13:00,
2013-11-21 12:18:00,31.8,30.5,30.22,NNW,342,12.0,12.0,95,0.01,CLR,BKN,0.01,WeatherDisplay:10.37,2013-11-21 18:18:00,
2013-11-21 12:23:00,31.6,30.1,30.23,West,266,13.8,13.8,94,0.00,CLR,BKN,0.01,WeatherDisplay:10.37,2013-11-21 18:23:00,
2013-11-21 12:28:00,31.5,30.0,30.23,NNW,346,13.0,13.0,94,0.00,CLR,BKN,0.01,WeatherDisplay:10.37,2013-11-21 18:28:00,
2013-11-21 12:33:00,31.2,29.7,30.23,North,356,9.2,9.2,94,0.00,CLR,BKN,0.01,WeatherDisplay:10.37,2013-11-21 18:33:00,
2013-11-21 12:38:00,31.2,29.4,30.23,NNW,348,11.5,11.5,93,0.00,CLR,BKN,0.01,WeatherDisplay:10.37,2013-11-21 18:38:00,
2013-11-21 12:43:00,31.0,29.2,30.23,NNW,346,11.5,11.5,93,0.00,CLR,BKN,0.01,WeatherDisplay:10.37,2013-11-21 18:43:00,
2013-11-21 12:48:00,30.9,28.9,30.23,NNW,339,12.7,12.7,92,0.00,CLR,BKN,0.01,WeatherDisplay:10.37,2013-11-21 18:48:00,
2013-11-21 12:53:00,30.9,28.9,30.23,NNW,332,8.1,8.1,92,0.00,CLR,BKN,0.01,WeatherDisplay:10.37,2013-11-21 18:53:00,
2013-11-21 12:58:00,30.7,28.7,30.23,NW,314,7.0,7.0,92,0.00,CLR,BKN,0.01,WeatherDisplay:10.37,2013-11-21 18:58:00,
2013-11-21 13:03:00,30.7,28.7,30.24,NW,319,19.6,19.6,92,0.00,CLR,BKN,0.01,WeatherDisplay:10.37,2013-11-21 19:03:00,
2013-11-21 13:08:00,30.6,28.3,30.24,NNW,332,12.7,12.7,91,0.00,CLR,BKN,0.01,WeatherDisplay:10.37,2013-11-21 19:08:00,
2013-11-21 13:13:00,30.4,27.8,30.24,NW,306,12.7,12.7,90,0.00,CLR,BKN,0.01,WeatherDisplay:10.37,2013-11-21 19:13:00,
2013-11-21 13:18:00,30.4,27.8,30.24,NW,320,7.0,7.0,90,0.00,CLR,BKN,0.01,WeatherDisplay:10.37,2013-11-21 19:18:00,
2013-11-21 13:23:00,30.3,27.4,30.25,NW,323,13.0,13.0,89,0.00,CLR,BKN,0.01,WeatherDisplay:10.37,2013-11-21 19:23:00,
2013-11-21 13:28:00,30.3,27.2,30.25,NW,323,11.0,11.0,88,0.00,CLR,BKN,0.01,WeatherDisplay:10.37,2013-11-21 19:28:00,
2013-11-21 13:33:00,30.1,26.7,30.25,NW,319,15.0,15.0,87,0.00,CLR,BKN,0.01,WeatherDisplay:10.37,2013-11-21 19:33:00,
2013-11-21 13:38:00,30.0,26.3,30.25,NW,319,11.5,11.5,86,0.00,CLR,BKN,0.01,WeatherDisplay:10.37,2013-11-21 19:38:00,
2013-11-21 13:43:00,30.0,26.3,30.26,NW,312,16.0,16.0,86,0.00,CLR,BKN,0.01,WeatherDisplay:10.37,2013-11-21 19:43:00,
2013-11-21 13:48:00,30.0,26.0,30.26,NW,312,15.0,15.0,85,0.00,CLR,BKN,0.01,WeatherDisplay:10.37,2013-11-21 19:48:00,
2013-11-21 13:53:00,29.7,25.2,30.26,NE,42,15.0,15.0,83,0.00,CLR,BKN,0.01,WeatherDisplay:10.37,2013-11-21 19:53:00,
2013-11-21 13:58:00,29.5,24.7,30.26,NNW,327,18.4,18.4,82,0.00,CLR,BKN,0.01,WeatherDisplay:10.37,2013-11-21 19:58:00,
2013-11-21 14:03:00,29.5,24.7,30.26,NW,318,16.1,16.1,82,0.00,CLR,BKN,0.01,WeatherDisplay:10.37,2013-11-21 20:03:00,
2013-11-21 14:08:00,29.4,24.3,30.26,NNW,338,16.1,16.1,81,0.00,CLR,BKN,0.01,WeatherDisplay:10.37,2013-11-21 20:08:00,
2013-11-21 14:13:00,29.3,24.2,30.26,NW,317,11.0,11.0,81,0.00,CLR,BKN,0.01,WeatherDisplay:10.37,2013-11-21 20:13:00,
2013-11-21 14:18:00,29.1,24.0,30.26,NW,319,9.2,9.2,81,0.00,CLR,BKN,0.01,WeatherDisplay:10.37,2013-11-21 20:18:00,
2013-11-21 14:23:00,29.0,23.6,30.27,NW,322,13.0,13.0,80,0.00,CLR,BKN,0.01,WeatherDisplay:10.37,2013-11-21 20:23:00,
2013-11-21 14:28:00,29.0,23.6,30.27,NNW,331,16.1,16.1,80,0.00,CLR,BKN,0.01,WeatherDisplay:10.37,2013-11-21 20:28:00,
2013-11-21 14:33:00,28.8,23.7,30.28,North,10,10.4,10.4,81,0.00,CLR,BKN,0.01,WeatherDisplay:10.37,2013-11-21 20:33:00,
2013-11-21 14:38:00,28.7,23.9,30.28,NNW,343,17.0,17.0,82,0.00,CLR,BKN,0.01,WeatherDisplay:10.37,2013-11-21 20:38:00,
2013-11-21 14:43:00,28.5,23.7,30.28,NNW,331,12.7,12.7,82,0.00,CLR,BKN,0.01,WeatherDisplay:10.37,2013-11-21 20:43:00,
2013-11-21 14:48:00,28.4,23.6,30.29,NNW,329,11.0,11.0,82,0.00,CLR,BKN,0.01,WeatherDisplay:10.37,2013-11-21 20:48:00,
2013-11-21 14:53:00,28.4,23.9,30.30,WNW,287,13.8,13.8,83,0.00,CLR,BKN,0.01,WeatherDisplay:10.37,2013-11-21 20:53:00,
2013-11-21 14:58:00,28.2,23.7,30.30,North,355,14.0,14.0,83,0.00,CLR,BKN,0.01,WeatherDisplay:10.37,2013-11-21 20:58:00,
2013-11-21 15:03:00,28.2,24.0,30.30,NNW,329,14.0,14.0,84,0.00,CLR,BKN,0.01,WeatherDisplay:10.37,2013-11-21 21:03:00,
2013-11-21 15:08:00,27.9,23.4,30.30,North,358,11.5,11.5,83,0.00,CLR,BKN,0.01,WeatherDisplay:10.37,2013-11-21 21:08:00,
2013-11-21 15:13:00,27.8,22.7,30.31,NNW,342,12.7,12.7,81,0.00,CLR,BKN,0.01,WeatherDisplay:10.37,2013-11-21 21:13:00,
2013-11-21 15:18:00,27.6,23.4,30.31,NW,306,12.0,12.0,84,0.00,CLR,BKN,0.01,WeatherDisplay:10.37,2013-11-21 21:18:00,
2013-11-21 15:23:00,27.6,23.7,30.32,NNW,331,13.8,13.8,85,0.00,CLR,BKN,0.01,WeatherDisplay:10.37,2013-11-21 21:23:00,
2013-11-21 15:28:00,27.5,23.6,30.32,NNW,341,13.8,13.8,85,0.00,CLR,BKN,0.01,WeatherDisplay:10.37,2013-11-21 21:28:00,
2013-11-21 15:33:00,27.3,23.4,30.32,NNW,333,19.0,19.0,85,0.00,CLR,BKN,0.01,WeatherDisplay:10.37,2013-11-21 21:33:00,
2013-11-21 15:38:00,27.2,23.0,30.33,NW,325,18.4,18.4,84,0.00,CLR,BKN,0.01,WeatherDisplay:10.37,2013-11-21 21:38:00,
2013-11-21 15:43:00,27.2,22.7,30.33,WNW,298,15.0,15.0,83,0.00,CLR,BKN,0.01,WeatherDisplay:10.37,2013-11-21 21:43:00,
2013-11-21 15:48:00,27.2,22.7,30.33,NNW,346,17.0,17.0,83,0.00,CLR,BKN,0.01,WeatherDisplay:10.37,2013-11-21 21:48:00,
2013-11-21 15:53:00,27.0,21.9,30.33,NW,312,20.7,20.7,81,0.00,CLR,BKN,0.01,WeatherDisplay:10.37,2013-11-21 21:53:00,
2013-11-21 15:58:00,27.0,22.2,30.33,NNW,327,18.4,18.4,82,0.00,CLR,BKN,0.01,WeatherDisplay:10.37,2013-11-21 21:58:00,
2013-11-21 16:03:00,27.0,22.2,30.33,North,5,12.0,12.0,82,0.00,CLR,BKN,0.01,WeatherDisplay:10.37,2013-11-21 22:03:00,
2013-11-21 16:08:00,27.0,22.5,30.33,North,350,12.0,12.0,83,0.00,CLR,BKN,0.01,WeatherDisplay:10.37,2013-11-21 22:08:00,
2013-11-21 16:13:00,26.9,22.7,30.34,NW,316,10.0,10.0,84,0.00,CLR,BKN,0.01,WeatherDisplay:10.37,2013-11-21 22:13:00,
2013-11-21 16:18:00,26.7,22.5,30.34,NNW,341,16.1,16.1,84,0.00,CLR,BKN,0.01,WeatherDisplay:10.37,2013-11-21 22:18:00,
2013-11-21 16:23:00,26.6,22.7,30.34,North,4,13.8,13.8,85,0.00,CLR,BKN,0.01,WeatherDisplay:10.37,2013-11-21 22:23:00,
2013-11-21 16:28:00,26.4,22.8,30.34,NW,315,9.2,9.2,86,0.00,CLR,BKN,0.01,WeatherDisplay:10.37,2013-11-21 22:28:00,
2013-11-21 16:33:00,26.3,22.7,30.34,NNW,327,15.0,15.0,86,0.00,CLR,BKN,0.01,WeatherDisplay:10.37,2013-11-21 22:33:00,
2013-11-21 16:38:00,26.1,22.5,30.34,North,353,17.0,17.0,86,0.00,CLR,BKN,0.01,WeatherDisplay:10.37,2013-11-21 22:38:00,
2013-11-21 16:43:00,26.0,22.4,30.34,North,356,17.0,17.0,86,0.00,CLR,BKN,0.01,WeatherDisplay:10.37,2013-11-21 22:43:00,
2013-11-21 16:48:00,26.0,22.4,30.34,NNW,340,11.5,11.5,86,0.00,CLR,BKN,0.01,WeatherDisplay:10.37,2013-11-21 22:48:00,
2013-11-21 16:53:00,25.8,22.2,30.34,NNW,348,12.7,12.7,86,0.00,CLR,BKN,0.01,WeatherDisplay:10.37,2013-11-21 22:53:00,
2013-11-21 16:58:00,25.8,22.2,30.34,NNW,348,18.0,18.0,86,0.00,CLR,BKN,0.01,WeatherDisplay:10.37,2013-11-21 22:58:00,
2013-11-21 17:03:00,25.8,22.2,30.35,NW,319,23.0,23.0,86,0.00,CLR,BKN,0.01,WeatherDisplay:10.37,2013-11-21 23:03:00,
2013-11-21 17:08:00,25.7,22.1,30.35,North,351,18.0,18.0,86,0.00,CLR,BKN,0.01,WeatherDisplay:10.37,2013-11-21 23:08:00,
2013-11-21 17:13:00,25.6,22.0,30.35,WNW,303,11.5,11.5,86,0.00,CLR,BKN,0.01,WeatherDisplay:10.37,2013-11-21 23:13:00,
2013-11-21 17:18:00,25.6,22.0,30.35,North,351,12.7,12.7,86,0.00,CLR,BKN,0.01,WeatherDisplay:10.37,2013-11-21 23:18:00,
2013-11-21 17:23:00,25.6,22.3,30.35,NNW,348,12.7,12.7,87,0.00,CLR,BKN,0.01,WeatherDisplay:10.37,2013-11-21 23:23:00,
2013-11-21 17:28:00,25.6,22.3,30.36,North,350,17.0,17.0,87,0.00,CLR,BKN,0.01,WeatherDisplay:10.37,2013-11-21 23:28:00,
2013-11-21 17:33:00,25.4,22.1,30.36,NNW,345,14.0,14.0,87,0.00,CLR,BKN,0.01,WeatherDisplay:10.37,2013-11-21 23:33:00,
2013-11-21 17:38:00,25.4,22.1,30.36,North,4,10.0,10.0,87,0.00,CLR,BKN,0.01,WeatherDisplay:10.37,2013-11-21 23:38:00,
2013-11-21 17:43:00,25.4,22.1,30.36,North,8,15.0,15.0,87,0.00,CLR,BKN,0.01,WeatherDisplay:10.37,2013-11-21 23:43:00,
2013-11-21 17:48:00,25.4,22.1,30.36,North,360,18.4,18.4,87,0.00,CLR,BKN,0.01,WeatherDisplay:10.37,2013-11-21 23:48:00,
2013-11-21 17:53:00,25.4,22.3,30.36,North,9,16.1,16.1,88,0.00,CLR,BKN,0.01,WeatherDisplay:10.37,2013-11-21 23:53:00,
2013-11-21 17:58:00,25.3,22.2,30.36,WNW,298,13.8,13.8,88,0.00,CLR,BKN,0.01,WeatherDisplay:10.37,2013-11-21 23:58:00,
2013-11-21 18:03:00,25.3,22.2,30.37,North,353,15.0,15.0,88,0.00,CLR,BKN,0.01,WeatherDisplay:10.37,2013-11-22 00:03:00,
2013-11-21 18:08:00,25.3,22.2,30.37,NNW,346,8.1,8.1,88,0.00,CLR,BKN,0.01,WeatherDisplay:10.37,2013-11-22 00:08:00,
2013-11-21 18:13:00,25.3,22.2,30.37,NNW,344,13.0,13.0,88,0.00,CLR,BKN,0.01,WeatherDisplay:10.37,2013-11-22 00:13:00,
2013-11-21 18:18:00,25.3,22.2,30.37,NNW,344,14.0,14.0,88,0.00,CLR,BKN,0.01,WeatherDisplay:10.37,2013-11-22 00:18:00,
2013-11-21 18:23:00,25.3,22.2,30.37,NNW,333,11.5,11.5,88,0.00,CLR,BKN,0.01,WeatherDisplay:10.37,2013-11-22 00:23:00,
2013-11-21 18:28:00,25.3,22.2,30.37,North,353,15.0,15.0,88,0.00,CLR,BKN,0.01,WeatherDisplay:10.37,2013-11-22 00:28:00,
2013-11-21 18:33:00,25.1,22.0,30.38,NNW,331,18.4,18.4,88,0.00,CLR,BKN,0.01,WeatherDisplay:10.37,2013-11-22 00:33:00,
2013-11-21 18:38:00,25.1,22.0,30.38,North,360,12.7,12.7,88,0.00,CLR,BKN,0.01,WeatherDisplay:10.37,2013-11-22 00:38:00,
2013-11-21 18:43:00,25.1,22.0,30.38,North,9,15.0,15.0,88,0.00,CLR,BKN,0.01,WeatherDisplay:10.37,2013-11-22 00:43:00,
2013-11-21 18:48:00,25.0,21.9,30.38,NNE,15,12.7,12.7,88,0.00,CLR,BKN,0.01,WeatherDisplay:10.37,2013-11-22 00:48:00,
2013-11-21 18:53:00,25.0,21.9,30.38,North,360,12.7,12.7,88,0.00,CLR,BKN,0.01,WeatherDisplay:10.37,2013-11-22 00:53:00,
2013-11-21 18:58:00,25.0,21.9,30.38,North,10,11.5,11.5,88,0.00,CLR,BKN,0.01,WeatherDisplay:10.37,2013-11-22 00:58:00,
2013-11-21 19:03:00,25.0,22.2,30.38,NNW,348,13.0,13.0,89,0.00,CLR,BKN,0.01,WeatherDisplay:10.37,2013-11-22 01:03:00,
2013-11-21 19:08:00,24.8,21.8,30.38,NNW,337,12.7,12.7,88,0.00,CLR,BKN,0.01,WeatherDisplay:10.37,2013-11-22 01:08:00,
2013-11-21 19:13:00,24.8,21.8,30.38,NNE,29,13.8,13.8,88,0.00,CLR,BKN,0.01,WeatherDisplay:10.37,2013-11-22 01:13:00,
2013-11-21 19:18:00,24.8,22.0,30.38,North,11,14.0,14.0,89,0.00,CLR,BKN,0.01,WeatherDisplay:10.37,2013-11-22 01:18:00,
2013-11-21 19:23:00,24.8,22.0,30.39,NNW,346,8.0,8.0,89,0.00,CLR,BKN,0.01,WeatherDisplay:10.37,2013-11-22 01:23:00,
2013-11-21 19:28:00,24.8,22.0,30.39,NNW,346,14.0,14.0,89,0.00,CLR,BKN,0.01,WeatherDisplay:10.37,2013-11-22 01:28:00,
2013-11-21 19:33:00,24.8,22.0,30.39,North,360,16.1,16.1,89,0.00,CLR,BKN,0.01,WeatherDisplay:10.37,2013-11-22 01:33:00,
2013-11-21 19:38:00,24.8,21.8,30.39,NNW,342,11.5,11.5,88,0.00,CLR,BKN,0.01,WeatherDisplay:10.37,2013-11-22 01:38:00,
2013-11-21 19:43:00,24.8,21.8,30.39,North,350,11.0,11.0,88,0.00,CLR,BKN,0.01,WeatherDisplay:10.37,2013-11-22 01:43:00,
2013-11-21 19:48:00,24.8,21.8,30.40,North,5,15.0,15.0,88,0.00,CLR,BKN,0.01,WeatherDisplay:10.37,2013-11-22 01:48:00,
2013-11-21 19:53:00,24.7,21.7,30.40,NNW,329,11.0,11.0,88,0.00,CLR,BKN,0.01,WeatherDisplay:10.37,2013-11-22 01:53:00,
2013-11-21 19:58:00,24.7,21.7,30.40,North,9,11.5,11.5,88,0.00,CLR,BKN,0.01,WeatherDisplay:10.37,2013-11-22 01:58:00,
2013-11-21 20:03:00,24.7,21.7,30.40,NNW,346,10.4,10.4,88,0.00,CLR,BKN,0.01,WeatherDisplay:10.37,2013-11-22 02:03:00,
2013-11-21 20:08:00,24.7,21.7,30.41,North,350,13.0,13.0,88,0.00,CLR,BKN,0.01,WeatherDisplay:10.37,2013-11-22 02:08:00,
2013-11-21 20:09:00,24.7,21.7,30.41,NNW,344,13.0,13.0,88,0.00,CLR,BKN,0.01,WeatherDisplay:10.37,2013-11-22 02:09:00,
2013-11-21 20:10:00,24.7,21.6,30.41,North,349,9.0,15.0,88,0.00,CLR,BKN,0.01,WeatherDisplay:10.37,2013-11-22 02:10:00,
2013-11-21 20:11:00,24.5,21.5,30.41,NNW,346,11.5,11.5,88,0.00,CLR,BKN,0.01,WeatherDisplay:10.37,2013-11-22 02:11:00,
2013-11-21 20:12:00,24.5,21.5,30.41,NNW,344,11.0,11.0,88,0.00,CLR,BKN,0.01,WeatherDisplay:10.37,2013-11-22 02:12:00,
2013-11-21 20:17:00,24.5,21.5,30.41,NNW,348,13.0,13.0,88,0.00,CLR,BKN,0.01,WeatherDisplay:10.37,2013-11-22 02:17:00,
2013-11-21 20:22:00,24.5,21.2,30.41,North,353,17.3,17.3,87,0.00,CLR,BKN,0.01,WeatherDisplay:10.37,2013-11-22 02:22:00,
2013-11-21 20:27:00,24.4,21.1,30.41,NNW,331,12.7,12.7,87,0.00,CLR,BKN,0.01,WeatherDisplay:10.37,2013-11-22 02:27:00,
2013-11-21 20:32:00,24.4,21.1,30.42,North,1,15.0,15.0,87,0.00,CLR,BKN,0.01,WeatherDisplay:10.37,2013-11-22 02:32:00,
2013-11-21 20:37:00,24.4,21.1,30.42,NNW,346,13.0,13.0,87,0.00,CLR,BKN,0.01,WeatherDisplay:10.37,2013-11-22 02:37:00,
2013-11-21 20:42:00,24.4,21.1,30.42,North,350,12.7,12.7,87,0.00,CLR,BKN,0.01,WeatherDisplay:10.37,2013-11-22 02:42:00,
2013-11-21 20:47:00,24.4,20.8,30.41,NNW,333,17.3,17.3,86,0.00,CLR,BKN,0.01,WeatherDisplay:10.37,2013-11-22 02:47:00,
2013-11-21 20:52:00,24.2,20.6,30.42,NNW,340,11.0,11.0,86,0.00,CLR,BKN,0.01,WeatherDisplay:10.37,2013-11-22 02:52:00,
2013-11-21 20:57:00,24.2,20.6,30.42,North,9,11.5,11.5,86,0.00,CLR,BKN,0.01,WeatherDisplay:10.37,2013-11-22 02:57:00,
2013-11-21 21:02:00,24.2,20.3,30.43,NNW,340,16.1,16.1,85,0.00,CLR,BKN,0.01,WeatherDisplay:10.37,2013-11-22 03:02:00,
2013-11-21 21:07:00,24.1,20.2,30.43,North,355,13.8,13.8,85,0.00,CLR,BKN,0.01,WeatherDisplay:10.37,2013-11-22 03:07:00,
2013-11-21 21:12:00,24.1,20.2,30.43,NNW,329,17.0,17.0,85,0.00,CLR,BKN,0.01,WeatherDisplay:10.37,2013-11-22 03:12:00,
2013-11-21 21:17:00,23.9,20.0,30.43,NNE,20,16.1,16.1,85,0.00,CLR,BKN,0.01,WeatherDisplay:10.37,2013-11-22 03:17:00,
2013-11-21 21:22:00,23.9,20.0,30.43,North,7,10.4,10.4,85,0.00,CLR,BKN,0.01,WeatherDisplay:10.37,2013-11-22 03:22:00,
2013-11-21 21:27:00,23.9,20.0,30.43,North,355,12.7,12.7,85,0.00,CLR,BKN,0.01,WeatherDisplay:10.37,2013-11-22 03:27:00,
2013-11-21 21:32:00,23.9,20.0,30.44,NNW,344,15.0,15.0,85,0.00,CLR,BKN,0.01,WeatherDisplay:10.37,2013-11-22 03:32:00,
2013-11-21 21:37:00,23.8,20.2,30.44,North,357,10.4,10.4,86,0.00,CLR,BKN,0.01,WeatherDisplay:10.37,2013-11-22 03:37:00,
2013-11-21 21:42:00,23.6,20.0,30.44,NNW,335,13.8,13.8,86,0.00,CLR,BKN,0.01,WeatherDisplay:10.37,2013-11-22 03:42:00,
2013-11-21 21:47:00,23.6,20.3,30.44,NNW,348,12.0,12.0,87,0.00,CLR,BKN,0.01,WeatherDisplay:10.37,2013-11-22 03:47:00,
2013-11-21 21:52:00,23.6,20.3,30.44,NNW,341,13.0,13.0,87,0.00,CLR,BKN,0.01,WeatherDisplay:10.37,2013-11-22 03:52:00,
2013-11-21 21:57:00,23.5,20.2,30.44,North,355,12.7,12.7,87,0.00,CLR,BKN,0.01,WeatherDisplay:10.37,2013-11-22 03:57:00,
2013-11-21 22:02:00,23.5,20.2,30.44,NNW,342,15.0,15.0,87,0.00,CLR,BKN,0.01,WeatherDisplay:10.37,2013-11-22 04:02:00,
2013-11-21 22:07:00,23.3,20.0,30.45,NW,317,13.8,13.8,87,0.00,CLR,BKN,0.01,WeatherDisplay:10.37,2013-11-22 04:07:00,
2013-11-21 22:12:00,23.2,19.9,30.45,NNW,344,9.2,9.2,87,0.00,CLR,BKN,0.01,WeatherDisplay:10.37,2013-11-22 04:12:00,
2013-11-21 22:17:00,23.0,19.7,30.45,North,7,10.4,10.4,87,0.00,CLR,BKN,0.01,WeatherDisplay:10.37,2013-11-22 04:17:00,
2013-11-21 22:22:00,23.0,19.7,30.45,North,352,14.0,14.0,87,0.00,CLR,BKN,0.01,WeatherDisplay:10.37,2013-11-22 04:22:00,
2013-11-21 22:27:00,22.9,19.3,30.45,NNE,21,15.0,15.0,86,0.00,CLR,BKN,0.01,WeatherDisplay:10.37,2013-11-22 04:27:00,
2013-11-21 22:32:00,22.9,19.1,30.45,NNW,344,10.0,10.0,85,0.00,CLR,BKN,0.01,WeatherDisplay:10.37,2013-11-22 04:32:00,
2013-11-21 22:37:00,22.9,19.1,30.46,NE,45,11.5,11.5,85,0.00,CLR,BKN,0.01,WeatherDisplay:10.37,2013-11-22 04:37:00,
2013-11-21 22:42:00,22.9,18.8,30.46,North,2,10.4,10.4,84,0.00,CLR,BKN,0.01,WeatherDisplay:10.37,2013-11-22 04:42:00,
2013-11-21 22:47:00,22.7,18.3,30.46,NNW,327,14.0,14.0,83,0.00,CLR,BKN,0.01,WeatherDisplay:10.37,2013-11-22 04:47:00,
2013-11-21 22:52:00,22.7,18.3,30.46,NNW,348,13.0,13.0,83,0.00,CLR,BKN,0.01,WeatherDisplay:10.37,2013-11-22 04:52:00,
2013-11-21 22:57:00,22.7,18.0,30.46,North,358,12.7,12.7,82,0.00,CLR,BKN,0.01,WeatherDisplay:10.37,2013-11-22 04:57:00,
2013-11-21 23:01:00,22.7,18.0,30.47,North,4,13.8,13.8,82,0.00,CLR,BKN,0.01,WeatherDisplay:10.37,2013-11-22 05:01:00,
2013-11-21 23:02:00,22.7,18.0,30.47,NNW,346,17.0,17.0,82,0.00,CLR,BKN,0.01,WeatherDisplay:10.37,2013-11-22 05:02:00,
2013-11-21 23:04:00,22.7,18.0,30.47,NNW,342,22.0,22.0,82,0.00,CLR,BKN,0.01,WeatherDisplay:10.37,2013-11-22 05:04:00,
2013-11-21 23:06:00,22.7,18.0,30.47,NW,310,19.6,19.6,82,0.00,CLR,BKN,0.01,WeatherDisplay:10.37,2013-11-22 05:06:00,
2013-11-21 23:11:00,22.7,17.7,30.47,North,7,17.3,17.3,81,0.00,CLR,BKN,0.01,WeatherDisplay:10.37,2013-11-22 05:11:00,
2013-11-21 23:16:00,22.5,17.3,30.47,NNW,348,14.0,14.0,80,0.00,CLR,BKN,0.01,WeatherDisplay:10.37,2013-11-22 05:16:00,
2013-11-21 23:21:00,22.5,17.5,30.48,North,2,13.0,13.0,81,0.00,CLR,BKN,0.01,WeatherDisplay:10.37,2013-11-22 05:21:00,
2013-11-21 23:26:00,22.5,17.3,30.48,North,358,11.5,11.5,80,0.00,CLR,BKN,0.01,WeatherDisplay:10.37,2013-11-22 05:26:00,
2013-11-21 23:31:00,22.4,17.2,30.48,NW,308,9.2,9.2,80,0.00,CLR,BKN,0.01,WeatherDisplay:10.37,2013-11-22 05:31:00,
2013-11-21 23:36:00,22.4,17.2,30.48,North,352,10.4,10.4,80,0.00,CLR,BKN,0.01,WeatherDisplay:10.37,2013-11-22 05:36:00,
2013-11-21 23:41:00,22.4,17.2,30.48,North,358,9.2,9.2,80,0.00,CLR,BKN,0.01,WeatherDisplay:10.37,2013-11-22 05:41:00,
2013-11-21 23:46:00,22.2,16.7,30.48,NNW,342,9.2,9.2,79,0.00,CLR,BKN,0.01,WeatherDisplay:10.37,2013-11-22 05:46:00,
2013-11-21 23:51:00,22.2,17.0,30.49,NNW,327,19.6,19.6,80,0.00,CLR,BKN,0.01,WeatherDisplay:10.37,2013-11-22 05:51:00,
2013-11-21 23:56:00,22.2,16.7,30.49,North,4,15.0,15.0,79,0.00,CLR,BKN,0.01,WeatherDisplay:10.37,2013-11-22 05:56:00,